createdAt,value
2017-12-04T05:00:40.136Z,1018.42
2017-12-04T05:01:05.622Z,1018.39
2017-12-04T05:01:31.121Z,1018.45
2017-12-04T05:01:56.626Z,1018.45
2017-12-04T05:02:22.098Z,1018.45
2017-12-04T05:02:47.587Z,1018.5
2017-12-04T05:03:13.030Z,1018.43
2017-12-04T05:03:38.530Z,1018.48
2017-12-04T05:04:04.011Z,1018.51
2017-12-04T05:04:29.510Z,1018.48
2017-12-04T05:04:54.951Z,1018.44
2017-12-04T05:05:20.427Z,1018.45
2017-12-04T05:05:45.961Z,1018.42
2017-12-04T05:06:11.482Z,1018.43
2017-12-04T05:07:25.295Z,1018.41
2017-12-04T05:07:50.770Z,1018.42
2017-12-04T05:08:16.294Z,1018.44
2017-12-04T05:08:41.777Z,1018.47
2017-12-04T05:09:07.270Z,1018.45
2017-12-04T05:09:32.769Z,1018.47
2017-12-04T05:09:58.262Z,1018.44
2017-12-04T05:10:23.795Z,1018.43
2017-12-04T05:10:49.274Z,1018.45
2017-12-04T05:11:14.712Z,1018.44
2017-12-04T05:11:40.202Z,1018.47
2017-12-04T05:12:05.657Z,1018.44
2017-12-04T05:12:31.162Z,1018.45
2017-12-04T05:13:34.766Z,1018.46
2017-12-04T05:14:00.258Z,1018.48
2017-12-04T05:14:25.750Z,1018.45
2017-12-04T05:14:51.253Z,1018.49
2017-12-04T05:15:16.731Z,1018.47
2017-12-04T05:15:42.209Z,1018.47
2017-12-04T05:16:07.729Z,1018.5
2017-12-04T05:16:33.180Z,1018.53
2017-12-04T05:16:58.680Z,1018.52
2017-12-04T05:17:24.110Z,1018.49
2017-12-04T05:17:49.646Z,1018.5
2017-12-04T05:18:15.111Z,1018.56
2017-12-04T05:18:40.577Z,1018.55
2017-12-04T05:19:06.049Z,1018.55
2017-12-04T05:19:31.524Z,1018.52
2017-12-04T05:19:56.955Z,1018.52
2017-12-04T05:20:22.444Z,1018.6
2017-12-04T05:20:47.902Z,1018.52
2017-12-04T05:21:13.362Z,1018.55
2017-12-04T05:21:38.794Z,1018.56
2017-12-04T05:22:04.258Z,1018.55
2017-12-04T05:22:29.706Z,1018.54
2017-12-04T05:22:55.183Z,1018.64
2017-12-04T05:23:20.620Z,1018.57
2017-12-04T05:23:46.083Z,1018.57
2017-12-04T05:24:11.583Z,1018.58
2017-12-04T05:24:37.040Z,1018.56
2017-12-04T05:25:02.510Z,1018.59
2017-12-04T05:25:27.967Z,1018.58
2017-12-04T05:25:53.455Z,1018.58
2017-12-04T05:26:18.910Z,1018.59
2017-12-04T05:26:44.330Z,1018.52
2017-12-04T05:27:09.820Z,1018.57
2017-12-04T05:27:35.294Z,1018.6
2017-12-04T05:28:00.776Z,1018.6
2017-12-04T05:28:26.207Z,1018.57
2017-12-04T05:28:51.710Z,1018.57
2017-12-04T05:29:17.181Z,1018.56
2017-12-04T05:29:42.625Z,1018.57
2017-12-04T05:30:08.107Z,1018.58
2017-12-04T05:30:33.596Z,1018.68
2017-12-04T05:30:59.030Z,1018.66
2017-12-04T05:31:24.523Z,1018.67
2017-12-04T05:31:49.979Z,1018.58
2017-12-04T05:32:15.458Z,1018.64
2017-12-04T05:33:34.315Z,1018.62
2017-12-04T05:33:59.813Z,1018.59
2017-12-04T05:34:25.299Z,1018.62
2017-12-04T05:34:50.766Z,1018.65
2017-12-04T05:35:16.264Z,1018.6
2017-12-04T05:35:41.717Z,1018.6
2017-12-04T05:36:07.176Z,1018.66
2017-12-04T05:36:32.660Z,1018.65
2017-12-04T05:36:58.099Z,1018.63
2017-12-04T05:37:23.573Z,1018.63
2017-12-04T05:37:49.043Z,1018.63
2017-12-04T05:38:14.538Z,1018.66
2017-12-04T05:38:40.029Z,1018.64
2017-12-04T05:39:05.490Z,1018.65
2017-12-04T05:39:30.979Z,1018.66
2017-12-04T05:39:56.402Z,1018.68
2017-12-04T05:40:21.881Z,1018.67
2017-12-04T05:40:47.354Z,1018.71
2017-12-04T05:41:12.830Z,1018.63
2017-12-04T05:41:38.310Z,1018.66
2017-12-04T05:42:03.796Z,1018.63
2017-12-04T05:42:29.259Z,1018.61
2017-12-04T05:42:54.723Z,1018.63
2017-12-04T05:43:20.262Z,1018.62
2017-12-04T05:43:45.667Z,1018.59
2017-12-04T05:44:11.102Z,1018.59
2017-12-04T05:44:36.548Z,1018.59
2017-12-04T05:45:02.036Z,1018.58
2017-12-04T05:45:27.514Z,1018.58
2017-12-04T05:45:52.980Z,1018.61
2017-12-04T05:46:18.451Z,1018.55
2017-12-04T05:46:43.941Z,1018.54
2017-12-04T05:47:09.422Z,1018.54
2017-12-04T05:47:34.868Z,1018.56
2017-12-04T05:48:00.338Z,1018.54
2017-12-04T05:48:25.835Z,1018.52
2017-12-04T05:48:51.300Z,1018.52
2017-12-04T05:49:16.736Z,1018.58
2017-12-04T05:49:42.241Z,1018.62
2017-12-04T05:50:07.711Z,1018.59
2017-12-04T05:50:33.253Z,1018.57
2017-12-04T05:50:58.688Z,1018.61
2017-12-04T05:51:24.161Z,1018.6
2017-12-04T05:51:49.618Z,1018.57
2017-12-04T05:52:15.094Z,1018.57
2017-12-04T05:52:40.557Z,1018.6
2017-12-04T05:53:06.042Z,1018.6
2017-12-04T05:54:19.891Z,1018.59
2017-12-04T05:54:45.354Z,1018.58
2017-12-04T05:55:10.885Z,1018.55
2017-12-04T05:55:36.365Z,1018.61
2017-12-04T05:56:01.833Z,1018.57
2017-12-04T05:56:27.311Z,1018.62
2017-12-04T05:56:52.791Z,1018.63
2017-12-04T05:57:18.237Z,1018.61
2017-12-04T05:57:43.782Z,1018.57
2017-12-04T05:58:09.264Z,1018.57
2017-12-04T05:58:34.744Z,1018.63
2017-12-04T05:59:00.243Z,1018.59
2017-12-04T05:59:25.669Z,1018.62
2017-12-04T05:59:51.184Z,1018.59
2017-12-04T06:00:16.651Z,1018.58
2017-12-04T06:00:42.201Z,1018.63
2017-12-04T06:01:07.668Z,1018.63
2017-12-04T06:01:33.122Z,1018.66
2017-12-04T06:01:58.574Z,1018.65
2017-12-04T06:02:24.036Z,1018.67
2017-12-04T06:02:49.485Z,1018.75
2017-12-04T06:03:14.981Z,1018.69
2017-12-04T06:03:40.425Z,1018.69
2017-12-04T06:04:05.900Z,1018.73
2017-12-04T06:04:31.396Z,1018.72
2017-12-04T06:04:56.889Z,1018.77
2017-12-04T06:05:22.370Z,1018.7
2017-12-04T06:05:47.843Z,1018.74
2017-12-04T06:06:13.342Z,1018.79
2017-12-04T06:06:38.835Z,1018.8
2017-12-04T06:07:04.262Z,1018.8
2017-12-04T06:07:29.732Z,1018.76
2017-12-04T06:07:55.228Z,1018.76
2017-12-04T06:08:53.756Z,1018.77
2017-12-04T06:09:19.244Z,1018.8
2017-12-04T06:09:44.727Z,1018.85
2017-12-04T06:10:10.201Z,1018.83
2017-12-04T06:10:35.665Z,1018.76
2017-12-04T06:11:01.168Z,1018.81
2017-12-04T06:11:26.675Z,1018.81
2017-12-04T06:11:52.154Z,1018.83
2017-12-04T06:12:17.642Z,1018.77
2017-12-04T06:12:43.134Z,1018.77
2017-12-04T06:13:56.897Z,1018.86
2017-12-04T06:14:22.383Z,1018.8
2017-12-04T06:14:47.889Z,1018.83
2017-12-04T06:15:13.410Z,1018.86
2017-12-04T06:15:38.916Z,1018.89
2017-12-04T06:16:04.396Z,1018.9
2017-12-04T06:16:29.925Z,1018.84
2017-12-04T06:16:55.415Z,1018.9
2017-12-04T06:17:20.880Z,1018.91
2017-12-04T06:17:46.387Z,1018.92
2017-12-04T06:18:11.928Z,1018.86
2017-12-04T06:18:37.446Z,1018.92
2017-12-04T06:19:02.940Z,1018.92
2017-12-04T06:19:28.422Z,1018.93
2017-12-04T06:19:53.885Z,1018.96
2017-12-04T06:20:19.413Z,1018.94
2017-12-04T06:20:44.921Z,1018.9
2017-12-04T06:21:58.716Z,1018.97
2017-12-04T06:22:24.201Z,1018.97
2017-12-04T06:22:49.690Z,1018.94
2017-12-04T06:23:15.185Z,1018.94
2017-12-04T06:23:40.667Z,1018.94
2017-12-04T06:24:06.160Z,1018.92
2017-12-04T06:24:31.626Z,1018.94
2017-12-04T06:24:57.111Z,1018.98
2017-12-04T06:25:22.607Z,1018.99
2017-12-04T06:25:48.144Z,1018.95
2017-12-04T06:26:13.639Z,1018.99
2017-12-04T06:26:39.111Z,1018.96
2017-12-04T06:27:04.587Z,1018.99
2017-12-04T06:27:30.047Z,1019
2017-12-04T06:27:55.537Z,1019
2017-12-04T06:28:21.019Z,1018.98
2017-12-04T06:28:46.503Z,1019.01
2017-12-04T06:29:45.018Z,1018.99
2017-12-04T06:30:10.530Z,1019.04
2017-12-04T06:30:35.999Z,1019.02
2017-12-04T06:31:01.513Z,1019
2017-12-04T06:31:26.979Z,1019.01
2017-12-04T06:31:52.428Z,1019
2017-12-04T06:32:17.950Z,1019.04
2017-12-04T06:32:43.421Z,1019.08
2017-12-04T06:33:08.898Z,1019.08
2017-12-04T06:33:34.371Z,1019.06
2017-12-04T06:33:59.847Z,1019.06
2017-12-04T06:34:25.359Z,1019.06
2017-12-04T06:34:50.830Z,1019.04
2017-12-04T06:35:16.318Z,1019.04
2017-12-04T06:35:41.825Z,1019.06
2017-12-04T06:36:07.291Z,1019.02
2017-12-04T06:36:32.780Z,1019.03
2017-12-04T06:36:58.262Z,1019.03
2017-12-04T06:37:23.781Z,1019.01
2017-12-04T06:37:49.286Z,1019.02
2017-12-04T06:38:14.780Z,1019.04
2017-12-04T06:38:40.307Z,1019.01
2017-12-04T06:39:05.791Z,1019.01
2017-12-04T06:39:31.318Z,1019.07
2017-12-04T06:39:56.796Z,1019.07
2017-12-04T06:40:22.282Z,1019.02
2017-12-04T06:40:47.763Z,1019.06
2017-12-04T06:41:13.262Z,1019.03
2017-12-04T06:41:38.745Z,1019.07
2017-12-04T06:42:04.262Z,1019.07
2017-12-04T06:42:29.732Z,1019.06
2017-12-04T06:42:55.235Z,1019.09
2017-12-04T06:43:20.680Z,1019.08
2017-12-04T06:43:46.210Z,1019.09
2017-12-04T06:44:11.687Z,1019.13
2017-12-04T06:44:37.169Z,1019.1
2017-12-04T06:45:02.652Z,1019.06
2017-12-04T06:45:28.141Z,1019.15
2017-12-04T06:45:53.627Z,1019.08
2017-12-04T06:46:19.103Z,1019.11
2017-12-04T06:46:44.600Z,1019.13
2017-12-04T06:47:10.088Z,1019.1
2017-12-04T06:47:35.569Z,1019.11
2017-12-04T06:48:01.050Z,1019.09
2017-12-04T06:48:26.585Z,1019.17
2017-12-04T06:48:52.050Z,1019.12
2017-12-04T06:49:17.537Z,1019.19
2017-12-04T06:49:43.005Z,1019.2
2017-12-04T06:50:41.535Z,1019.19
2017-12-04T06:51:07.020Z,1019.17
2017-12-04T06:51:32.520Z,1019.15
2017-12-04T06:51:58.029Z,1019.17
2017-12-04T06:52:23.508Z,1019.19
2017-12-04T06:52:49.010Z,1019.15
2017-12-04T06:53:57.700Z,1019.19
2017-12-04T06:54:23.199Z,1019.15
2017-12-04T06:54:48.671Z,1019.2
2017-12-04T06:55:14.130Z,1019.16
2017-12-04T06:55:39.630Z,1019.18
2017-12-04T06:56:05.193Z,1019.19
2017-12-04T06:56:30.676Z,1019.21
2017-12-04T06:56:56.179Z,1019.22
2017-12-04T06:57:21.655Z,1019.2
2017-12-04T06:57:47.158Z,1019.25
2017-12-04T06:58:12.634Z,1019.25
2017-12-04T06:58:38.129Z,1019.26
2017-12-04T06:59:03.615Z,1019.26
2017-12-04T06:59:29.120Z,1019.24
2017-12-04T06:59:54.618Z,1019.23
2017-12-04T07:00:20.138Z,1019.25
2017-12-04T07:00:45.620Z,1019.29
2017-12-04T07:01:11.107Z,1019.31
2017-12-04T07:01:36.564Z,1019.28
2017-12-04T07:02:02.076Z,1019.32
2017-12-04T07:02:27.543Z,1019.31
2017-12-04T07:02:53.033Z,1019.28
2017-12-04T07:03:18.521Z,1019.26
2017-12-04T07:03:44.006Z,1019.3
2017-12-04T07:04:09.453Z,1019.3
2017-12-04T07:04:34.967Z,1019.29
2017-12-04T07:05:00.515Z,1019.27
2017-12-04T07:05:25.979Z,1019.3
2017-12-04T07:05:51.465Z,1019.29
2017-12-04T07:06:16.965Z,1019.31
2017-12-04T07:06:42.507Z,1019.32
2017-12-04T07:07:08.024Z,1019.34
2017-12-04T07:07:33.558Z,1019.36
2017-12-04T07:07:59.054Z,1019.35
2017-12-04T07:08:24.521Z,1019.36
2017-12-04T07:09:23.039Z,1019.39
2017-12-04T07:09:48.517Z,1019.41
2017-12-04T07:10:14.011Z,1019.43
2017-12-04T07:10:39.479Z,1019.43
2017-12-04T07:11:04.959Z,1019.42
2017-12-04T07:12:08.615Z,1019.43
2017-12-04T07:12:34.116Z,1019.48
2017-12-04T07:12:59.612Z,1019.46
2017-12-04T07:13:25.105Z,1019.44
2017-12-04T07:13:50.611Z,1019.44
2017-12-04T07:14:16.111Z,1019.43
2017-12-04T07:14:41.624Z,1019.45
2017-12-04T07:15:07.123Z,1019.46
2017-12-04T07:15:32.606Z,1019.49
2017-12-04T07:15:58.095Z,1019.47
2017-12-04T07:16:23.580Z,1019.43
2017-12-04T07:16:49.094Z,1019.46
2017-12-04T07:17:14.583Z,1019.48
2017-12-04T07:17:40.106Z,1019.49
2017-12-04T07:18:05.587Z,1019.48
2017-12-04T07:18:31.077Z,1019.47
2017-12-04T07:18:56.582Z,1019.5
2017-12-04T07:19:22.057Z,1019.44
2017-12-04T07:19:47.549Z,1019.51
2017-12-04T07:20:13.062Z,1019.43
2017-12-04T07:20:38.521Z,1019.5
2017-12-04T07:21:04.024Z,1019.45
2017-12-04T07:21:29.526Z,1019.47
2017-12-04T07:21:55.018Z,1019.49
2017-12-04T07:23:13.954Z,1019.49
2017-12-04T07:23:39.448Z,1019.47
2017-12-04T07:24:04.951Z,1019.55
2017-12-04T07:24:30.419Z,1019.49
2017-12-04T07:24:55.894Z,1019.48
2017-12-04T07:26:09.649Z,1019.49
2017-12-04T07:26:35.137Z,1019.49
2017-12-04T07:27:00.632Z,1019.5
2017-12-04T07:27:26.136Z,1019.52
2017-12-04T07:27:51.635Z,1019.51
2017-12-04T07:28:17.133Z,1019.49
2017-12-04T07:28:42.598Z,1019.5
2017-12-04T07:29:08.082Z,1019.53
2017-12-04T07:29:33.556Z,1019.54
2017-12-04T07:29:59.045Z,1019.51
2017-12-04T07:30:24.513Z,1019.53
2017-12-04T07:30:49.995Z,1019.59
2017-12-04T07:31:15.494Z,1019.56
2017-12-04T07:31:40.952Z,1019.58
2017-12-04T07:32:06.403Z,1019.57
2017-12-04T07:32:31.917Z,1019.53
2017-12-04T07:32:57.394Z,1019.62
2017-12-04T07:33:22.868Z,1019.55
2017-12-04T07:34:21.378Z,1019.61
2017-12-04T07:34:46.872Z,1019.68
2017-12-04T07:35:12.384Z,1019.61
2017-12-04T07:35:37.857Z,1019.66
2017-12-04T07:36:03.334Z,1019.65
2017-12-04T07:36:28.799Z,1019.62
2017-12-04T07:36:54.251Z,1019.69
2017-12-04T07:37:19.739Z,1019.69
2017-12-04T07:37:45.215Z,1019.66
2017-12-04T07:38:10.684Z,1019.63
2017-12-04T07:38:36.148Z,1019.64
2017-12-04T07:39:01.631Z,1019.69
2017-12-04T07:39:27.119Z,1019.65
2017-12-04T07:39:52.602Z,1019.67
2017-12-04T07:40:18.070Z,1019.68
2017-12-04T07:40:43.574Z,1019.68
2017-12-04T07:41:09.090Z,1019.71
2017-12-04T07:41:34.553Z,1019.69
2017-12-04T07:42:00.025Z,1019.67
2017-12-04T07:42:25.548Z,1019.68
2017-12-04T07:42:51.008Z,1019.71
2017-12-04T07:43:16.488Z,1019.69
2017-12-04T07:43:42.006Z,1019.69
2017-12-04T07:44:07.500Z,1019.71
2017-12-04T07:44:33.045Z,1019.72
2017-12-04T07:44:58.491Z,1019.72
2017-12-04T07:45:23.972Z,1019.7
2017-12-04T07:45:49.434Z,1019.72
2017-12-04T07:46:14.920Z,1019.77
2017-12-04T07:46:40.425Z,1019.74
2017-12-04T07:47:05.873Z,1019.71
2017-12-04T07:47:31.364Z,1019.69
2017-12-04T07:47:56.842Z,1019.69
2017-12-04T07:48:22.309Z,1019.72
2017-12-04T07:48:47.822Z,1019.71
2017-12-04T07:49:13.319Z,1019.69
2017-12-04T07:49:38.784Z,1019.67
2017-12-04T07:50:04.305Z,1019.71
2017-12-04T07:50:29.826Z,1019.68
2017-12-04T07:50:55.317Z,1019.72
2017-12-04T07:51:20.834Z,1019.66
2017-12-04T07:51:46.331Z,1019.67
2017-12-04T07:52:11.848Z,1019.68
2017-12-04T07:52:37.309Z,1019.64
2017-12-04T07:53:02.790Z,1019.66
2017-12-04T07:53:28.267Z,1019.62
2017-12-04T07:53:53.751Z,1019.63
2017-12-04T07:54:19.246Z,1019.66
2017-12-04T07:54:44.754Z,1019.65
2017-12-04T07:55:10.227Z,1019.62
2017-12-04T07:55:35.737Z,1019.72
2017-12-04T07:56:01.182Z,1019.66
2017-12-04T07:57:14.976Z,1019.67
2017-12-04T07:57:40.506Z,1019.7
2017-12-04T07:58:05.981Z,1019.68
2017-12-04T07:58:31.496Z,1019.69
2017-12-04T07:58:56.981Z,1019.7
2017-12-04T07:59:22.449Z,1019.64
2017-12-04T07:59:47.972Z,1019.66
2017-12-04T08:00:13.481Z,1019.73
2017-12-04T08:00:38.951Z,1019.71
2017-12-04T08:01:04.451Z,1019.66
2017-12-04T08:01:29.984Z,1019.71
2017-12-04T08:01:55.436Z,1019.69
2017-12-04T08:02:20.963Z,1019.68
2017-12-04T08:02:46.437Z,1019.71
2017-12-04T08:03:11.946Z,1019.67
2017-12-04T08:03:37.445Z,1019.65
2017-12-04T08:04:02.897Z,1019.69
2017-12-04T08:04:28.413Z,1019.63
2017-12-04T08:04:53.934Z,1019.69
2017-12-04T08:05:19.431Z,1019.66
2017-12-04T08:05:44.934Z,1019.72
2017-12-04T08:06:10.444Z,1019.67
2017-12-04T08:06:35.976Z,1019.63
2017-12-04T08:07:01.420Z,1019.65
2017-12-04T08:07:26.886Z,1019.67
2017-12-04T08:07:52.384Z,1019.68
2017-12-04T08:08:17.867Z,1019.69
2017-12-04T08:08:43.334Z,1019.65
2017-12-04T08:09:08.822Z,1019.68
2017-12-04T08:09:34.296Z,1019.68
2017-12-04T08:09:59.830Z,1019.65
2017-12-04T08:10:25.329Z,1019.69
2017-12-04T08:10:50.859Z,1019.65
2017-12-04T08:11:16.356Z,1019.69
2017-12-04T08:11:41.784Z,1019.68
2017-12-04T08:12:07.250Z,1019.69
2017-12-04T08:12:32.749Z,1019.71
2017-12-04T08:12:58.213Z,1019.65
2017-12-04T08:13:23.661Z,1019.68
2017-12-04T08:13:49.171Z,1019.72
2017-12-04T08:14:14.695Z,1019.63
2017-12-04T08:14:40.185Z,1019.69
2017-12-04T08:15:05.701Z,1019.7
2017-12-04T08:15:31.203Z,1019.78
2017-12-04T08:15:56.689Z,1019.75
2017-12-04T08:16:22.231Z,1019.69
2017-12-04T08:16:47.731Z,1019.67
2017-12-04T08:17:51.383Z,1019.75
2017-12-04T08:18:16.892Z,1019.74
2017-12-04T08:18:42.379Z,1019.77
2017-12-04T08:19:07.883Z,1019.75
2017-12-04T08:19:33.357Z,1019.76
2017-12-04T08:19:58.838Z,1019.75
2017-12-04T08:20:24.336Z,1019.81
2017-12-04T08:20:49.818Z,1019.78
2017-12-04T08:21:15.296Z,1019.74
2017-12-04T08:21:40.812Z,1019.78
2017-12-04T08:22:06.314Z,1019.74
2017-12-04T08:22:31.808Z,1019.78
2017-12-04T08:22:57.281Z,1019.83
2017-12-04T08:23:22.785Z,1019.81
2017-12-04T08:23:48.276Z,1019.83
2017-12-04T08:24:13.752Z,1019.84
2017-12-04T08:24:39.272Z,1019.86
2017-12-04T08:25:04.810Z,1019.85
2017-12-04T08:25:30.325Z,1019.88
2017-12-04T08:25:55.799Z,1019.85
2017-12-04T08:26:21.319Z,1019.87
2017-12-04T08:26:46.800Z,1019.89
2017-12-04T08:27:12.273Z,1019.9
2017-12-04T08:27:37.765Z,1019.94
2017-12-04T08:28:03.284Z,1019.92
2017-12-04T08:28:28.735Z,1019.87
2017-12-04T08:28:54.229Z,1019.89
2017-12-04T08:29:19.749Z,1019.92
2017-12-04T08:29:45.249Z,1019.95
2017-12-04T08:30:10.799Z,1019.94
2017-12-04T08:30:36.273Z,1019.91
2017-12-04T08:31:01.776Z,1019.94
2017-12-04T08:31:27.300Z,1020
2017-12-04T08:31:52.829Z,1020.02
2017-12-04T08:32:18.297Z,1020
2017-12-04T08:32:43.810Z,1019.98
2017-12-04T08:33:09.293Z,1020.04
2017-12-04T08:33:34.762Z,1020.02
2017-12-04T08:34:00.255Z,1020.02
2017-12-04T08:34:25.711Z,1020.02
2017-12-04T08:34:51.192Z,1020.05
2017-12-04T08:35:16.705Z,1020.01
2017-12-04T08:35:42.185Z,1020.03
2017-12-04T08:36:07.682Z,1020.05
2017-12-04T08:36:33.191Z,1020.01
2017-12-04T08:36:58.734Z,1020.08
2017-12-04T08:37:24.194Z,1020.03
2017-12-04T08:37:49.700Z,1020.03
2017-12-04T08:38:15.191Z,1020.02
2017-12-04T08:38:40.673Z,1020.07
2017-12-04T08:39:06.163Z,1020.06
2017-12-04T08:39:31.656Z,1020.12
2017-12-04T08:39:57.180Z,1020.03
2017-12-04T08:40:22.689Z,1020.07
2017-12-04T08:40:48.155Z,1020.09
2017-12-04T08:41:13.672Z,1020.06
2017-12-04T08:41:39.164Z,1020.04
2017-12-04T08:42:04.702Z,1020.09
2017-12-04T08:42:30.188Z,1020.08
2017-12-04T08:42:55.661Z,1020.04
2017-12-04T08:43:21.140Z,1020.11
2017-12-04T08:43:46.640Z,1020.07
2017-12-04T08:44:12.125Z,1020.12
2017-12-04T08:44:37.600Z,1020.11
2017-12-04T08:45:03.111Z,1020.09
2017-12-04T08:45:28.593Z,1020.16
2017-12-04T08:45:54.105Z,1020.14
2017-12-04T08:46:19.624Z,1020.16
2017-12-04T08:46:45.121Z,1020.18
2017-12-04T08:47:10.606Z,1020.16
2017-12-04T08:47:36.090Z,1020.17
2017-12-04T08:48:01.596Z,1020.16
2017-12-04T08:48:27.086Z,1020.22
2017-12-04T08:48:52.587Z,1020.17
2017-12-04T08:49:18.101Z,1020.19
2017-12-04T08:49:43.571Z,1020.23
2017-12-04T08:50:09.080Z,1020.19
2017-12-04T08:50:34.587Z,1020.23
2017-12-04T08:51:00.060Z,1020.2
2017-12-04T08:51:25.532Z,1020.19
2017-12-04T08:51:51.035Z,1020.18
2017-12-04T08:52:16.510Z,1020.25
2017-12-04T08:52:41.997Z,1020.25
2017-12-04T08:53:07.517Z,1020.25
2017-12-04T08:53:33.069Z,1020.27
2017-12-04T08:53:58.574Z,1020.26
2017-12-04T08:54:24.026Z,1020.27
2017-12-04T08:54:49.543Z,1020.27
2017-12-04T08:55:15.029Z,1020.32
2017-12-04T08:55:40.542Z,1020.32
2017-12-04T08:56:06.027Z,1020.3
2017-12-04T08:56:31.504Z,1020.34
2017-12-04T08:56:57.010Z,1020.37
2017-12-04T08:57:22.511Z,1020.35
2017-12-04T08:57:48.031Z,1020.35
2017-12-04T08:58:13.619Z,1020.41
2017-12-04T08:58:39.184Z,1020.36
2017-12-04T08:59:04.671Z,1020.39
2017-12-04T08:59:30.163Z,1020.4
2017-12-04T08:59:55.673Z,1020.43
2017-12-04T09:00:21.230Z,1020.47
2017-12-04T09:00:46.718Z,1020.49
2017-12-04T09:01:12.204Z,1020.47
2017-12-04T09:01:37.706Z,1020.51
2017-12-04T09:02:03.225Z,1020.48
2017-12-04T09:02:28.693Z,1020.47
2017-12-04T09:02:54.238Z,1020.54
2017-12-04T09:03:19.694Z,1020.52
2017-12-04T09:03:45.221Z,1020.51
2017-12-04T09:04:10.706Z,1020.55
2017-12-04T09:04:39.749Z,1020.55
2017-12-04T09:05:01.682Z,1020.51
2017-12-04T09:05:27.208Z,1020.53
2017-12-04T09:05:52.695Z,1020.54
2017-12-04T09:06:18.220Z,1020.56
2017-12-04T09:06:43.714Z,1020.64
2017-12-04T09:08:02.712Z,1020.64
2017-12-04T09:08:28.192Z,1020.66
2017-12-04T09:08:53.671Z,1020.68
2017-12-04T09:09:19.109Z,1020.68
2017-12-04T09:09:44.620Z,1020.72
2017-12-04T09:10:10.175Z,1020.7
2017-12-04T09:10:35.624Z,1020.74
2017-12-04T09:11:01.118Z,1020.78
2017-12-04T09:11:26.628Z,1020.75
2017-12-04T09:11:52.116Z,1020.73
2017-12-04T09:12:17.611Z,1020.71
2017-12-04T09:12:43.114Z,1020.73
2017-12-04T09:13:08.621Z,1020.7
2017-12-04T09:13:34.094Z,1020.78
2017-12-04T09:13:59.592Z,1020.74
2017-12-04T09:14:25.121Z,1020.8
2017-12-04T09:14:50.621Z,1020.78
2017-12-04T09:15:16.134Z,1020.78
2017-12-04T09:15:41.634Z,1020.77
2017-12-04T09:16:07.121Z,1020.77
2017-12-04T09:16:32.638Z,1020.83
2017-12-04T09:16:58.125Z,1020.8
2017-12-04T09:17:23.604Z,1020.8
2017-12-04T09:17:49.087Z,1020.84
2017-12-04T09:18:14.534Z,1020.82
2017-12-04T09:18:39.991Z,1020.84
2017-12-04T09:19:05.495Z,1020.82
2017-12-04T09:19:31.004Z,1020.81
2017-12-04T09:19:56.511Z,1020.84
2017-12-04T09:20:22.045Z,1020.85
2017-12-04T09:20:47.519Z,1020.84
2017-12-04T09:21:13.047Z,1020.86
2017-12-04T09:21:38.503Z,1020.86
2017-12-04T09:22:03.982Z,1020.88
2017-12-04T09:22:29.476Z,1020.87
2017-12-04T09:22:54.999Z,1020.92
2017-12-04T09:23:20.490Z,1020.91
2017-12-04T09:23:45.994Z,1020.89
2017-12-04T09:24:11.457Z,1020.93
2017-12-04T09:24:36.941Z,1020.94
2017-12-04T09:25:02.441Z,1020.95
2017-12-04T09:25:27.918Z,1020.94
2017-12-04T09:25:53.373Z,1020.97
2017-12-04T09:26:18.873Z,1020.95
2017-12-04T09:26:44.396Z,1020.95
2017-12-04T09:27:09.870Z,1020.96
2017-12-04T09:27:35.393Z,1020.96
2017-12-04T09:28:00.883Z,1020.97
2017-12-04T09:28:26.361Z,1020.94
2017-12-04T09:28:51.853Z,1020.92
2017-12-04T09:29:17.322Z,1020.9
2017-12-04T09:29:42.790Z,1020.92
2017-12-04T09:30:41.325Z,1020.93
2017-12-04T09:31:06.821Z,1020.89
2017-12-04T09:31:32.321Z,1020.96
2017-12-04T09:31:57.816Z,1020.94
2017-12-04T09:32:23.290Z,1020.94
2017-12-04T09:32:48.954Z,1020.91
2017-12-04T09:33:14.457Z,1020.97
2017-12-04T09:33:39.962Z,1020.94
2017-12-04T09:34:05.460Z,1020.96
2017-12-04T09:34:30.961Z,1021
2017-12-04T09:34:56.466Z,1020.98
2017-12-04T09:36:00.056Z,1020.95
2017-12-04T09:36:25.559Z,1021.01
2017-12-04T09:36:51.050Z,1020.97
2017-12-04T09:37:16.522Z,1020.97
2017-12-04T09:37:41.994Z,1020.99
2017-12-04T09:38:07.482Z,1020.99
2017-12-04T09:38:32.961Z,1020.99
2017-12-04T09:38:58.490Z,1021.02
2017-12-04T09:39:23.980Z,1021.02
2017-12-04T09:39:49.486Z,1021.02
2017-12-04T09:40:15.019Z,1021.01
2017-12-04T09:41:13.572Z,1021.02
2017-12-04T09:41:39.063Z,1021.01
2017-12-04T09:42:04.561Z,1021.07
2017-12-04T09:42:30.050Z,1021.09
2017-12-04T09:42:55.544Z,1021.06
2017-12-04T09:43:21.041Z,1021.1
2017-12-04T09:43:46.541Z,1021.1
2017-12-04T09:44:12.042Z,1021.1
2017-12-04T09:44:37.507Z,1021.11
2017-12-04T09:45:02.966Z,1021.1
2017-12-04T09:45:28.467Z,1021.13
2017-12-04T09:45:53.939Z,1021.09
2017-12-04T09:46:19.443Z,1021.13
2017-12-04T09:46:44.916Z,1021.13
2017-12-04T09:47:10.424Z,1021.1
2017-12-04T09:47:35.886Z,1021.09
2017-12-04T09:48:01.359Z,1021.06
2017-12-04T09:48:26.874Z,1021.14
2017-12-04T09:48:52.346Z,1021.15
2017-12-04T09:49:17.882Z,1021.14
2017-12-04T09:49:43.390Z,1021.11
2017-12-04T09:50:08.852Z,1021.14
2017-12-04T09:50:34.357Z,1021.12
2017-12-04T09:50:59.878Z,1021.17
2017-12-04T09:52:13.673Z,1021.22
2017-12-04T09:53:12.190Z,1021.2
2017-12-04T09:53:37.733Z,1021.22
2017-12-04T09:54:03.180Z,1021.19
2017-12-04T09:54:28.650Z,1021.18
2017-12-04T09:54:54.126Z,1021.18
2017-12-04T09:55:19.606Z,1021.16
2017-12-04T09:55:45.135Z,1021.15
2017-12-04T09:56:10.648Z,1021.16
2017-12-04T09:56:36.114Z,1021.19
2017-12-04T09:57:01.589Z,1021.21
2017-12-04T09:57:27.127Z,1021.19
2017-12-04T09:57:52.621Z,1021.2
2017-12-04T09:58:18.093Z,1021.17
2017-12-04T09:58:43.603Z,1021.24
2017-12-04T09:59:09.064Z,1021.15
2017-12-04T09:59:34.569Z,1021.15
2017-12-04T10:00:00.073Z,1021.2
2017-12-04T10:00:25.574Z,1021.16
2017-12-04T10:00:51.096Z,1021.2
2017-12-04T10:01:16.586Z,1021.22
2017-12-04T10:01:42.064Z,1021.17
2017-12-04T10:02:07.571Z,1021.2
2017-12-04T10:02:33.056Z,1021.18
2017-12-04T10:02:58.538Z,1021.2
2017-12-04T10:03:24.072Z,1021.22
2017-12-04T10:03:49.562Z,1021.22
2017-12-04T10:04:15.059Z,1021.22
2017-12-04T10:04:40.528Z,1021.21
2017-12-04T10:05:06.016Z,1021.23
2017-12-04T10:05:31.522Z,1021.18
2017-12-04T10:05:56.997Z,1021.23
2017-12-04T10:06:22.488Z,1021.24
2017-12-04T10:06:48.002Z,1021.25
2017-12-04T10:07:13.468Z,1021.24
2017-12-04T10:07:38.919Z,1021.25
2017-12-04T10:08:04.434Z,1021.27
2017-12-04T10:08:29.934Z,1021.25
2017-12-04T10:08:55.470Z,1021.27
2017-12-04T10:09:20.970Z,1021.25
2017-12-04T10:09:46.444Z,1021.25
2017-12-04T10:11:00.209Z,1021.28
2017-12-04T10:11:25.693Z,1021.25
2017-12-04T10:11:51.165Z,1021.28
2017-12-04T10:12:16.631Z,1021.28
2017-12-04T10:13:35.556Z,1021.24
2017-12-04T10:14:01.039Z,1021.22
2017-12-04T10:14:26.540Z,1021.25
2017-12-04T10:14:52.028Z,1021.26
2017-12-04T10:15:17.621Z,1021.22
2017-12-04T10:15:43.206Z,1021.25
2017-12-04T10:16:57.696Z,1021.27
2017-12-04T10:17:23.213Z,1021.28
2017-12-04T10:17:48.703Z,1021.25
2017-12-04T10:18:14.191Z,1021.27
2017-12-04T10:18:39.704Z,1021.31
2017-12-04T10:19:05.199Z,1021.29
2017-12-04T10:19:30.636Z,1021.28
2017-12-04T10:19:56.122Z,1021.29
2017-12-04T10:20:21.601Z,1021.32
2017-12-04T10:20:47.078Z,1021.26
2017-12-04T10:21:12.542Z,1021.29
2017-12-04T10:21:38.003Z,1021.3
2017-12-04T10:22:03.449Z,1021.29
2017-12-04T10:22:28.922Z,1021.28
2017-12-04T10:22:54.416Z,1021.29
2017-12-04T10:23:19.850Z,1021.31
2017-12-04T10:24:18.390Z,1021.25
2017-12-04T10:24:43.884Z,1021.28
2017-12-04T10:25:09.399Z,1021.3
2017-12-04T10:25:34.918Z,1021.21
2017-12-04T10:26:00.413Z,1021.25
2017-12-04T10:26:25.958Z,1021.23
2017-12-04T10:26:51.471Z,1021.2
2017-12-04T10:27:16.986Z,1021.23
2017-12-04T10:27:42.526Z,1021.22
2017-12-04T10:28:08.007Z,1021.24
2017-12-04T10:28:33.534Z,1021.25
2017-12-04T10:28:59.009Z,1021.2